Time;durP1;ratioP1;P1;durP2;ratioP2;P2;SDS_P1;SDS_P2;PMS_P1;PMS_P2;Temp;Humidity;BMP_temperature;BMP_pressure;BME280_temperature;BME280_humidity;BME280_pressure;Samples;Min_cycle;Max_cycle;Signal;HPM_P1;HPM_P2
2024/01/25 00:02:08;;;;;;;32.58;6.25;;;7.80;99.90;;;;;;5014613;28;20088;-76
2024/01/25 00:04:33;;;;;;;35.60;5.50;;;7.80;99.90;;;;;;5014572;28;20038;-76
2024/01/25 00:06:59;;;;;;;30.77;5.40;;;7.80;99.90;;;;;;5010373;28;20046;-76
2024/01/25 00:09:24;;;;;;;32.65;5.53;;;7.70;99.90;;;;;;5019191;28;20045;-78
2024/01/25 00:11:50;;;;;;;31.80;5.30;;;7.70;99.90;;;;;;5010737;28;20030;-76
2024/01/25 00:14:15;;;;;;;25.52;6.00;;;7.60;99.90;;;;;;5013312;28;20041;-76
2024/01/25 00:16:42;;;;;;;34.78;6.13;;;7.60;99.90;;;;;;5007069;28;20475;-78
2024/01/25 00:19:07;;;;;;;36.42;5.53;;;7.60;99.90;;;;;;5014198;28;20046;-77
2024/01/25 00:21:33;;;;;;;38.10;5.75;;;7.50;99.90;;;;;;5010002;28;20088;-77
2024/01/25 00:23:58;;;;;;;34.42;6.13;;;7.50;99.90;;;;;;5019840;28;20249;-77
2024/01/25 00:26:24;;;;;;;33.92;5.93;;;7.40;99.90;;;;;;5011061;28;20037;-76
2024/01/25 00:28:49;;;;;;;34.88;5.72;;;7.40;99.90;;;;;;5007937;28;20487;-77
2024/01/25 00:31:15;;;;;;;40.28;6.45;;;7.40;99.90;;;;;;5012787;28;20041;-76
2024/01/25 00:33:41;;;;;;;30.63;5.00;;;7.30;99.90;;;;;;5009785;28;20061;-77
2024/01/25 00:36:07;;;;;;;35.55;5.82;;;7.30;99.90;;;;;;5007643;28;20088;-76
2024/01/25 00:38:33;;;;;;;35.92;5.53;;;7.30;99.90;;;;;;5011678;28;20399;-77
2024/01/25 00:40:58;;;;;;;39.83;6.65;;;7.30;99.90;;;;;;5004176;28;20052;-77
2024/01/25 00:43:24;;;;;;;32.47;5.45;;;7.20;99.90;;;;;;5013372;28;20514;-77
2024/01/25 00:45:50;;;;;;;35.90;4.97;;;7.20;99.90;;;;;;5013457;28;20046;-77
2024/01/25 00:48:16;;;;;;;34.88;6.63;;;7.20;99.90;;;;;;5010541;28;20100;-77
2024/01/25 00:50:42;;;;;;;36.25;5.85;;;7.20;99.90;;;;;;5014474;28;20438;-79
2024/01/25 00:53:08;;;;;;;38.30;6.80;;;7.10;99.90;;;;;;5002795;28;20048;-76
2024/01/25 00:55:34;;;;;;;40.05;6.93;;;7.10;99.90;;;;;;5011306;28;20500;-76
2024/01/25 00:58:00;;;;;;;31.25;6.60;;;7.10;99.90;;;;;;5006166;28;20036;-77
2024/01/25 01:00:26;;;;;;;30.85;5.97;;;7.00;99.90;;;;;;5012797;28;20034;-77
2024/01/25 01:02:53;;;;;;;31.40;5.88;;;7.00;99.90;;;;;;5007223;28;20045;-76
2024/01/25 01:05:19;;;;;;;35.15;6.55;;;7.00;99.90;;;;;;5014403;28;20034;-77
2024/01/25 01:07:45;;;;;;;33.15;5.72;;;6.90;99.90;;;;;;5009744;28;20476;-77
2024/01/25 01:10:11;;;;;;;37.45;5.88;;;6.90;99.90;;;;;;5006691;28;20049;-77
2024/01/25 01:12:37;;;;;;;42.38;6.82;;;6.90;99.90;;;;;;5016365;28;20533;-77
2024/01/25 01:15:03;;;;;;;38.22;6.32;;;6.90;99.90;;;;;;5010171;28;20056;-78
2024/01/25 01:17:29;;;;;;;32.58;6.25;;;6.90;99.90;;;;;;5019249;28;20129;-77
2024/01/25 01:19:54;;;;;;;34.22;6.00;;;6.80;99.90;;;;;;5009369;28;20129;-79
2024/01/25 01:22:20;;;;;;;32.45;5.60;;;6.80;99.90;;;;;;5006143;28;20587;-77
2024/01/25 01:24:46;;;;;;;41.70;6.25;;;6.90;99.90;;;;;;5004025;28;20042;-76
2024/01/25 01:27:11;;;;;;;36.08;6.55;;;6.90;99.90;;;;;;4996383;28;20050;-77
2024/01/25 01:29:37;;;;;;;33.40;5.47;;;6.90;99.90;;;;;;5011071;28;20133;-76
2024/01/25 01:32:03;;;;;;;36.25;6.00;;;6.90;99.90;;;;;;5006280;28;20210;-77
2024/01/25 01:34:28;;;;;;;32.25;5.65;;;6.80;99.90;;;;;;5001624;28;20049;-77
2024/01/25 01:36:54;;;;;;;35.50;5.85;;;6.80;99.90;;;;;;5005392;28;20037;-77
2024/01/25 01:39:19;;;;;;;28.67;4.95;;;6.80;99.90;;;;;;5016106;28;20037;-77
2024/01/25 01:41:49;;;;;;;35.03;5.38;;;6.70;99.90;;;;;;5011527;28;20083;-77
2024/01/25 01:44:14;;;;;;;34.15;5.82;;;6.70;99.90;;;;;;5004716;28;20042;-76
2024/01/25 01:46:40;;;;;;;32.20;5.07;;;6.70;99.90;;;;;;5009421;28;20564;-80
2024/01/25 01:49:12;;;;;;;28.25;5.20;;;6.60;99.90;;;;;;5013333;28;20038;-77
2024/01/25 01:51:38;;;;;;;38.75;5.97;;;6.70;99.90;;;;;;5012513;28;20065;-76
2024/01/25 01:54:06;;;;;;;35.25;4.93;;;6.60;99.90;;;;;;5007256;28;20436;-79
2024/01/25 01:56:33;;;;;;;39.80;6.05;;;6.60;99.90;;;;;;5009483;28;20038;-77
2024/01/25 01:59:00;;;;;;;38.45;5.75;;;6.60;99.90;;;;;;5009135;28;20046;-77
2024/01/25 02:01:26;;;;;;;47.28;7.57;;;6.60;99.90;;;;;;5012412;28;20042;-79
2024/01/25 02:03:52;;;;;;;34.65;5.88;;;6.50;99.90;;;;;;5009155;28;20535;-77
2024/01/25 02:06:19;;;;;;;35.10;6.45;;;6.50;99.90;;;;;;5005703;28;20157;-77
2024/01/25 02:08:45;;;;;;;39.83;7.50;;;6.50;99.90;;;;;;5005509;28;20038;-76
2024/01/25 02:11:12;;;;;;;28.38;6.00;;;6.50;99.90;;;;;;5007913;28;20052;-77
2024/01/25 02:13:38;;;;;;;37.08;6.47;;;6.50;99.90;;;;;;5006807;28;20054;-76
2024/01/25 02:16:05;;;;;;;39.15;6.28;;;6.50;99.90;;;;;;4990052;28;20053;-76
2024/01/25 02:18:31;;;;;;;37.22;6.32;;;6.50;99.90;;;;;;5013211;28;20438;-77
2024/01/25 02:20:56;;;;;;;38.83;5.97;;;6.50;99.90;;;;;;5009678;28;20041;-78
2024/01/25 02:23:22;;;;;;;34.83;5.30;;;6.50;99.90;;;;;;5009623;28;20034;-76
2024/01/25 02:25:47;;;;;;;44.58;6.10;;;6.00;99.90;;;;;;5013053;28;20037;-77
2024/01/25 02:28:13;;;;;;;40.42;6.10;;;6.50;99.90;;;;;;5008569;28;20141;-76
2024/01/25 02:30:38;;;;;;;30.48;6.40;;;6.40;99.90;;;;;;5011293;28;20072;-76
2024/01/25 02:33:04;;;;;;;34.13;6.55;;;6.40;99.90;;;;;;5009892;28;20048;-76
2024/01/25 02:35:30;;;;;;;40.00;6.43;;;6.40;99.90;;;;;;5006843;28;20030;-77
2024/01/25 02:37:55;;;;;;;36.05;6.72;;;6.40;99.90;;;;;;5005893;28;20121;-77
2024/01/25 02:40:21;;;;;;;37.22;5.97;;;6.40;99.90;;;;;;5003085;28;20530;-78
2024/01/25 02:42:46;;;;;;;35.70;6.28;;;6.30;99.90;;;;;;5017316;28;20123;-77
2024/01/25 02:45:12;;;;;;;37.30;5.85;;;6.40;99.90;;;;;;5011620;28;20392;-77
2024/01/25 02:47:38;;;;;;;43.08;6.28;;;6.40;99.90;;;;;;5008030;28;20410;-77
2024/01/25 02:50:03;;;;;;;31.65;6.05;;;6.30;99.90;;;;;;5007180;28;20519;-78
2024/01/25 02:52:29;;;;;;;39.70;5.70;;;6.30;99.90;;;;;;5005574;28;20045;-76
2024/01/25 02:54:55;;;;;;;37.53;5.85;;;6.30;99.90;;;;;;5008181;28;20600;-76
2024/01/25 02:57:20;;;;;;;39.65;5.95;;;6.20;99.90;;;;;;5009042;28;20046;-77
2024/01/25 02:59:47;;;;;;;36.08;6.22;;;6.20;99.90;;;;;;5009880;28;20088;-77
2024/01/25 03:02:12;;;;;;;35.95;6.55;;;6.20;99.90;;;;;;5008045;28;20041;-77
2024/01/25 03:04:38;;;;;;;35.35;6.35;;;6.20;99.90;;;;;;5005959;28;20117;-77
2024/01/25 03:07:04;;;;;;;31.98;6.38;;;6.10;99.90;;;;;;5003218;28;20081;-77
2024/01/25 03:09:29;;;;;;;44.70;6.93;;;6.10;99.90;;;;;;5007708;28;20042;-77
2024/01/25 03:11:55;;;;;;;41.72;6.20;;;6.10;99.90;;;;;;5010790;28;20483;-77
2024/01/25 03:14:20;;;;;;;38.00;6.55;;;6.10;99.90;;;;;;5008785;28;20506;-77
2024/01/25 03:16:46;;;;;;;37.15;6.70;;;6.10;99.90;;;;;;5005906;28;20172;-80
2024/01/25 03:19:12;;;;;;;29.15;5.13;;;6.10;99.90;;;;;;5006278;28;20029;-77
2024/01/25 03:21:38;;;;;;;37.80;5.97;;;6.10;99.90;;;;;;5008727;28;20040;-79
2024/01/25 03:24:04;;;;;;;36.03;5.70;;;6.10;99.90;;;;;;5005272;28;20053;-76
2024/01/25 03:26:30;;;;;;;35.15;6.43;;;6.10;99.90;;;;;;5006176;28;20117;-77
2024/01/25 03:28:55;;;;;;;31.88;5.60;;;6.00;99.90;;;;;;5016368;28;20145;-77
2024/01/25 03:31:21;;;;;;;35.72;6.65;;;6.00;99.90;;;;;;5009292;28;20034;-77
2024/01/25 03:33:47;;;;;;;37.17;7.80;;;6.00;99.90;;;;;;5010839;28;20038;-77
2024/01/25 03:36:15;;;;;;;37.42;6.45;;;6.00;99.90;;;;;;5011659;28;20116;-77
2024/01/25 03:38:41;;;;;;;35.08;6.13;;;6.00;99.90;;;;;;5005151;28;20046;-77
2024/01/25 03:41:07;;;;;;;42.03;6.68;;;6.00;99.90;;;;;;5010969;28;20049;-77
2024/01/25 03:43:32;;;;;;;47.20;6.40;;;5.90;99.90;;;;;;5012825;28;20045;-76
2024/01/25 03:45:58;;;;;;;35.50;5.95;;;6.00;99.90;;;;;;5009376;28;20103;-77
2024/01/25 03:48:23;;;;;;;31.67;6.13;;;5.90;99.90;;;;;;5004670;28;20034;-77
2024/01/25 03:50:49;;;;;;;29.35;5.50;;;5.90;99.90;;;;;;5001981;28;20113;-79
2024/01/25 03:53:14;;;;;;;36.28;5.80;;;5.90;99.90;;;;;;5008389;28;20046;-77
2024/01/25 03:55:41;;;;;;;36.92;6.95;;;5.80;99.90;;;;;;5001253;28;20046;-77
2024/01/25 03:58:06;;;;;;;34.10;5.57;;;5.80;99.90;;;;;;5003438;28;20069;-77
2024/01/25 04:00:32;;;;;;;39.55;6.45;;;5.80;99.90;;;;;;5001096;28;20443;-77
2024/01/25 04:02:58;;;;;;;41.10;6.72;;;5.70;99.90;;;;;;5005484;28;20103;-77
2024/01/25 04:05:24;;;;;;;40.53;6.82;;;5.70;99.90;;;;;;5010411;28;20060;-77
2024/01/25 04:07:49;;;;;;;33.65;5.72;;;5.60;99.90;;;;;;5015188;28;20041;-77
2024/01/25 04:10:15;;;;;;;38.28;6.18;;;5.60;99.90;;;;;;4999959;28;20052;-77
2024/01/25 04:12:40;;;;;;;36.28;6.28;;;5.70;99.90;;;;;;5011146;28;20045;-77
2024/01/25 04:15:06;;;;;;;36.33;6.47;;;5.70;99.90;;;;;;5005144;28;20089;-77
2024/01/25 04:17:32;;;;;;;36.40;6.03;;;5.70;99.90;;;;;;5007730;28;20088;-77
2024/01/25 04:19:57;;;;;;;41.22;5.65;;;5.70;99.90;;;;;;5010331;28;20121;-77
2024/01/25 04:22:23;;;;;;;37.13;6.38;;;5.70;99.90;;;;;;5004768;28;20031;-77
2024/01/25 04:24:49;;;;;;;34.50;5.97;;;5.70;99.90;;;;;;5007240;28;20038;-77
2024/01/25 04:27:15;;;;;;;39.90;5.72;;;5.60;99.90;;;;;;5016218;28;20052;-77
2024/01/25 04:29:44;;;;;;;41.50;6.35;;;5.60;99.90;;;;;;5009976;28;20050;-77
2024/01/25 04:32:10;;;;;;;33.40;5.20;;;5.60;99.90;;;;;;5016854;28;20048;-77
2024/01/25 04:34:36;;;;;;;38.97;5.75;;;5.60;99.90;;;;;;5010208;28;20455;-77
2024/01/25 04:37:01;;;;;;;39.53;5.72;;;5.60;99.90;;;;;;5008768;28;20142;-77
2024/01/25 04:39:27;;;;;;;35.20;5.90;;;5.60;99.90;;;;;;5011576;28;20042;-76
2024/01/25 04:41:53;;;;;;;35.65;6.05;;;5.50;99.90;;;;;;5016098;28;20026;-77
2024/01/25 04:44:18;;;;;;;34.08;5.78;;;5.50;99.90;;;;;;5013374;28;20046;-79
2024/01/25 04:46:44;;;;;;;34.25;6.07;;;5.50;99.90;;;;;;5010792;28;20134;-77
2024/01/25 04:49:10;;;;;;;38.75;5.90;;;5.50;99.90;;;;;;5006958;28;20121;-77
2024/01/25 04:51:36;;;;;;;32.55;5.03;;;5.50;99.90;;;;;;5011328;28;20391;-77
2024/01/25 04:54:02;;;;;;;39.33;6.18;;;5.40;99.90;;;;;;5015648;28;20046;-77
2024/01/25 04:56:28;;;;;;;34.85;5.30;;;5.40;99.90;;;;;;5008868;28;20399;-76
2024/01/25 04:58:54;;;;;;;36.53;5.00;;;5.40;99.90;;;;;;5009568;28;20076;-76
2024/01/25 05:01:19;;;;;;;39.17;5.85;;;5.40;99.90;;;;;;5008705;28;20077;-77
2024/01/25 05:03:45;;;;;;;30.00;5.30;;;5.40;99.90;;;;;;5004179;28;20493;-77
2024/01/25 05:06:10;;;;;;;37.20;5.78;;;5.40;99.90;;;;;;5017711;28;20096;-76
2024/01/25 05:08:36;;;;;;;37.70;5.78;;;5.40;99.90;;;;;;5007345;28;20137;-77
2024/01/25 05:11:02;;;;;;;31.52;5.25;;;5.40;99.90;;;;;;5004380;28;20043;-77
2024/01/25 05:13:28;;;;;;;35.10;6.13;;;5.40;99.90;;;;;;5008058;28;20495;-76
2024/01/25 05:15:54;;;;;;;35.03;6.22;;;5.40;99.90;;;;;;5013237;28;20072;-76
2024/01/25 05:18:19;;;;;;;41.85;6.18;;;5.30;99.90;;;;;;5013162;28;20052;-77
2024/01/25 05:20:45;;;;;;;41.78;5.97;;;5.30;99.90;;;;;;5002374;28;20042;-77
2024/01/25 05:23:10;;;;;;;42.08;5.90;;;5.30;99.90;;;;;;5008938;28;20040;-77
2024/01/25 05:25:36;;;;;;;32.20;5.90;;;5.30;99.90;;;;;;5004681;28;20034;-77
2024/01/25 05:28:02;;;;;;;41.03;6.05;;;5.20;99.90;;;;;;5008632;28;20141;-77
2024/01/25 05:30:28;;;;;;;42.78;6.43;;;5.20;99.90;;;;;;5015403;28;20117;-77
2024/01/25 05:32:54;;;;;;;26.50;5.75;;;5.20;99.90;;;;;;5007349;28;20049;-77
2024/01/25 05:35:20;;;;;;;33.47;5.85;;;5.20;99.90;;;;;;4997760;28;20507;-77
2024/01/25 05:37:45;;;;;;;40.65;5.85;;;5.20;99.90;;;;;;5002185;28;20133;-78
2024/01/25 05:40:11;;;;;;;35.60;5.80;;;5.20;99.90;;;;;;5003452;28;20045;-77
2024/01/25 05:42:37;;;;;;;33.40;5.78;;;5.20;99.90;;;;;;4997844;28;20046;-77
2024/01/25 05:45:03;;;;;;;42.58;6.00;;;5.10;99.90;;;;;;5012871;28;20038;-77
2024/01/25 05:47:29;;;;;;;37.30;5.78;;;5.10;99.90;;;;;;5010276;28;20042;-77
2024/01/25 05:49:56;;;;;;;41.10;6.05;;;5.10;99.90;;;;;;5003026;28;20042;-77
2024/01/25 05:52:22;;;;;;;35.70;5.45;;;5.10;99.90;;;;;;5009681;28;20058;-77
2024/01/25 05:54:48;;;;;;;35.92;5.90;;;5.10;99.90;;;;;;5010157;28;20092;-77
2024/01/25 05:57:14;;;;;;;38.33;5.80;;;5.10;99.90;;;;;;5016942;28;20050;-77
2024/01/25 05:59:40;;;;;;;35.40;5.53;;;5.10;99.90;;;;;;5010100;28;20060;-77
2024/01/25 06:02:05;;;;;;;39.35;6.30;;;5.00;99.90;;;;;;5007838;28;20038;-77
2024/01/25 06:04:31;;;;;;;36.15;5.25;;;5.00;99.90;;;;;;5007856;28;20033;-77
2024/01/25 06:06:57;;;;;;;26.02;4.65;;;5.00;99.90;;;;;;5006550;28;20057;-77
2024/01/25 06:09:24;;;;;;;37.35;5.50;;;5.00;99.90;;;;;;5004707;28;20050;-77
2024/01/25 06:11:50;;;;;;;33.50;6.20;;;4.90;99.90;;;;;;5007979;28;20108;-77
2024/01/25 06:14:16;;;;;;;35.42;5.45;;;4.90;99.90;;;;;;5005482;28;20116;-77
2024/01/25 06:16:41;;;;;;;34.65;4.97;;;4.90;99.90;;;;;;5012656;28;20038;-76
2024/01/25 06:19:07;;;;;;;34.00;5.30;;;4.80;99.90;;;;;;5004203;28;20440;-76
2024/01/25 06:21:35;;;;;;;33.65;6.07;;;4.70;99.90;;;;;;5006489;28;20045;-76
2024/01/25 06:24:01;;;;;;;32.67;6.22;;;4.70;99.90;;;;;;5010388;28;20557;-76
2024/01/25 06:26:27;;;;;;;37.22;5.45;;;4.70;99.90;;;;;;5009971;28;20104;-76
2024/01/25 06:28:52;;;;;;;39.53;6.03;;;4.60;99.90;;;;;;5011772;28;20034;-76
2024/01/25 06:31:18;;;;;;;35.30;5.78;;;4.60;99.90;;;;;;5011723;28;20049;-77
2024/01/25 06:33:46;;;;;;;32.45;6.13;;;4.70;99.90;;;;;;5008722;28;20045;-78
2024/01/25 06:36:15;;;;;;;29.17;6.35;;;4.60;99.90;;;;;;5006931;28;20046;-76
2024/01/25 06:38:40;;;;;;;36.33;5.85;;;4.70;99.90;;;;;;5003582;28;20376;-77
2024/01/25 06:41:06;;;;;;;37.10;5.38;;;4.60;99.90;;;;;;4991208;28;20053;-77
2024/01/25 06:43:32;;;;;;;26.38;5.22;;;4.60;99.90;;;;;;5000284;28;20046;-77
2024/01/25 06:45:58;;;;;;;32.17;5.25;;;4.60;99.90;;;;;;5005153;28;20053;-77
2024/01/25 06:48:23;;;;;;;36.45;5.65;;;4.60;99.90;;;;;;5002277;28;20069;-77
2024/01/25 06:50:50;;;;;;;37.30;6.18;;;4.60;99.90;;;;;;5007060;28;20133;-76
2024/01/25 06:53:16;;;;;;;37.28;5.85;;;4.60;99.90;;;;;;5007120;28;20092;-76
2024/01/25 06:55:42;;;;;;;34.20;5.28;;;4.60;99.90;;;;;;5009920;28;20041;-78
2024/01/25 06:58:08;;;;;;;30.92;5.25;;;4.60;99.90;;;;;;4999273;28;20399;-76
2024/01/25 07:00:33;;;;;;;36.97;6.47;;;4.60;99.90;;;;;;5011006;28;20100;-76
2024/01/25 07:02:59;;;;;;;37.05;5.72;;;4.60;99.90;;;;;;5009998;28;20368;-76
2024/01/25 07:05:24;;;;;;;39.65;5.95;;;4.60;99.90;;;;;;5003527;28;20034;-77
2024/01/25 07:07:50;;;;;;;36.80;6.55;;;4.60;99.90;;;;;;5003559;28;20037;-75
2024/01/25 07:10:15;;;;;;;38.10;5.93;;;4.60;99.90;;;;;;5007632;28;20344;-75
2024/01/25 07:12:41;;;;;;;35.83;5.85;;;4.60;99.90;;;;;;5009160;28;20048;-76
2024/01/25 07:15:07;;;;;;;36.97;5.82;;;4.60;99.90;;;;;;5010548;28;20442;-75
2024/01/25 07:17:33;;;;;;;36.33;6.00;;;4.50;99.90;;;;;;5003649;28;20396;-77
2024/01/25 07:19:58;;;;;;;38.58;5.97;;;4.50;99.90;;;;;;5004721;28;20053;-75
2024/01/25 07:22:24;;;;;;;35.17;6.03;;;4.50;99.90;;;;;;4999574;28;20078;-75
2024/01/25 07:24:50;;;;;;;37.67;6.05;;;4.50;99.90;;;;;;5007666;28;20042;-77
2024/01/25 07:27:15;;;;;;;37.15;6.40;;;4.50;99.90;;;;;;5008987;28;20120;-77
2024/01/25 07:29:44;;;;;;;35.13;6.25;;;4.50;99.90;;;;;;5002139;28;20073;-76
2024/01/25 07:32:10;;;;;;;30.88;6.18;;;4.50;99.90;;;;;;5005237;28;20080;-75
2024/01/25 07:34:36;;;;;;;39.28;6.60;;;4.50;99.90;;;;;;5005372;28;20074;-75
2024/01/25 07:37:02;;;;;;;36.67;5.90;;;4.50;99.90;;;;;;4999955;28;20042;-76
2024/01/25 07:39:28;;;;;;;38.83;6.88;;;4.50;99.90;;;;;;5000053;28;20081;-75
2024/01/25 07:41:54;;;;;;;40.50;6.05;;;4.50;99.90;;;;;;5004939;28;20499;-77
2024/01/25 07:44:19;;;;;;;35.72;5.88;;;4.50;99.90;;;;;;4999173;28;20061;-75
2024/01/25 07:46:45;;;;;;;36.22;6.38;;;4.40;99.90;;;;;;5006064;28;20391;-77
2024/01/25 07:49:10;;;;;;;29.52;6.20;;;4.40;99.90;;;;;;4998000;28;20065;-76
2024/01/25 07:51:36;;;;;;;38.55;6.55;;;4.40;99.90;;;;;;4998572;28;20104;-77
2024/01/25 07:54:02;;;;;;;40.65;5.63;;;4.30;99.90;;;;;;5003972;28;20042;-75
2024/01/25 07:56:28;;;;;;;36.70;7.15;;;4.30;99.90;;;;;;5001645;28;20096;-76
2024/01/25 07:58:53;;;;;;;31.77;6.10;;;4.30;99.90;;;;;;5005205;28;20117;-76
2024/01/25 08:01:19;;;;;;;43.00;6.80;;;4.30;99.90;;;;;;5005339;28;20561;-76
2024/01/25 08:03:45;;;;;;;35.85;6.78;;;4.30;99.90;;;;;;5004300;28;20046;-76
2024/01/25 08:06:11;;;;;;;36.30;6.72;;;4.30;99.90;;;;;;5002843;28;20096;-76
2024/01/25 08:08:37;;;;;;;36.25;6.38;;;4.30;99.90;;;;;;5006740;28;20041;-76
2024/01/25 08:11:04;;;;;;;35.25;6.30;;;4.40;99.90;;;;;;5008881;28;20121;-74
2024/01/25 08:13:29;;;;;;;35.05;6.15;;;4.40;99.90;;;;;;5011002;28;20104;-75
2024/01/25 08:15:56;;;;;;;33.83;6.40;;;4.40;99.90;;;;;;5000188;28;20038;-77
2024/01/25 08:18:22;;;;;;;44.60;6.95;;;4.40;99.90;;;;;;5006165;28;20030;-76
2024/01/25 08:20:49;;;;;;;36.00;7.25;;;4.40;99.90;;;;;;5004079;28;20118;-76
2024/01/25 08:23:14;;;;;;;35.30;6.78;;;4.50;99.90;;;;;;5003813;28;20096;-76
2024/01/25 08:25:41;;;;;;;38.40;6.57;;;4.40;99.90;;;;;;5002943;28;20114;-76
2024/01/25 08:28:06;;;;;;;38.85;6.97;;;4.50;99.90;;;;;;5001999;28;20053;-75
2024/01/25 08:30:32;;;;;;;39.40;6.55;;;4.50;99.90;;;;;;5004209;28;20121;-75
2024/01/25 08:32:58;;;;;;;28.15;6.18;;;4.50;99.90;;;;;;4995639;28;20054;-76
2024/01/25 08:35:24;;;;;;;35.70;5.97;;;4.50;99.90;;;;;;5010674;28;20518;-76
2024/01/25 08:37:50;;;;;;;42.13;7.45;;;4.60;99.90;;;;;;5009045;28;20038;-77
2024/01/25 08:40:16;;;;;;;34.83;6.82;;;4.60;99.90;;;;;;5006234;28;20050;-77
2024/01/25 08:42:42;;;;;;;35.55;6.18;;;4.60;99.90;;;;;;5005540;28;20045;-76
2024/01/25 08:45:08;;;;;;;39.50;6.97;;;4.60;99.90;;;;;;5009947;28;20045;-78
2024/01/25 08:47:37;;;;;;;44.35;7.00;;;4.60;99.90;;;;;;5003144;28;20060;-76
2024/01/25 08:50:03;;;;;;;49.13;6.60;;;4.70;99.90;;;;;;5005892;28;20445;-77
2024/01/25 08:52:29;;;;;;;41.33;6.55;;;4.70;99.90;;;;;;5010309;28;20095;-76
2024/01/25 08:54:55;;;;;;;52.42;7.65;;;4.70;99.90;;;;;;5001895;28;20038;-76
2024/01/25 08:57:20;;;;;;;41.47;6.63;;;4.80;99.90;;;;;;5008942;28;21495;-76
2024/01/25 08:59:46;;;;;;;35.72;7.60;;;4.80;99.90;;;;;;5005415;28;20511;-75
2024/01/25 09:02:12;;;;;;;48.50;7.35;;;4.80;99.90;;;;;;5008784;28;20045;-74
2024/01/25 09:04:37;;;;;;;35.33;6.53;;;4.90;99.90;;;;;;5010299;28;20047;-76
2024/01/25 09:07:03;;;;;;;39.50;7.05;;;4.90;99.90;;;;;;5004858;28;20132;-76
2024/01/25 09:09:29;;;;;;;40.95;7.68;;;4.90;99.90;;;;;;5001381;28;20045;-75
2024/01/25 09:11:55;;;;;;;44.95;7.18;;;5.00;99.90;;;;;;5008861;28;20037;-75
2024/01/25 09:14:21;;;;;;;34.72;6.90;;;5.00;99.90;;;;;;5002405;28;20574;-80
2024/01/25 09:16:47;;;;;;;38.45;6.03;;;5.00;99.90;;;;;;5010943;28;20077;-78
2024/01/25 09:19:12;;;;;;;33.72;6.85;;;5.10;99.90;;;;;;5003361;28;20104;-77
2024/01/25 09:21:42;;;;;;;49.95;8.07;;;5.10;99.90;;;;;;4997889;28;20414;-76
2024/01/25 09:24:07;;;;;;;41.83;7.40;;;5.10;99.90;;;;;;5004585;28;20423;-75
2024/01/25 09:26:33;;;;;;;34.20;7.00;;;5.20;99.90;;;;;;5005007;28;20046;-77
2024/01/25 09:28:59;;;;;;;37.70;7.25;;;5.20;99.90;;;;;;5005488;28;20037;-78
2024/01/25 09:31:25;;;;;;;39.38;7.50;;;5.30;99.90;;;;;;4996829;28;20510;-75
2024/01/25 09:33:51;;;;;;;42.42;8.32;;;5.30;99.90;;;;;;5003163;28;20635;-77
2024/01/25 09:36:16;;;;;;;44.50;7.78;;;5.40;99.90;;;;;;5010800;28;20544;-76
2024/01/25 09:38:42;;;;;;;40.53;7.05;;;5.40;99.90;;;;;;5000613;28;20479;-75
2024/01/25 09:41:08;;;;;;;43.97;7.43;;;5.40;99.90;;;;;;4992283;28;20133;-75
2024/01/25 09:43:35;;;;;;;44.70;7.75;;;5.50;99.90;;;;;;5009354;28;20037;-75
2024/01/25 09:46:01;;;;;;;41.88;7.70;;;5.60;99.90;;;;;;5015372;28;20045;-75
2024/01/25 09:48:27;;;;;;;48.53;7.57;;;5.60;99.90;;;;;;5005850;28;20491;-75
2024/01/25 09:50:55;;;;;;;39.25;8.20;;;5.70;99.90;;;;;;5011695;28;20037;-75
2024/01/25 09:53:22;;;;;;;41.97;7.38;;;5.70;99.90;;;;;;4997018;28;20496;-78
2024/01/25 09:55:57;;;;;;;46.58;7.60;;;5.70;99.90;;;;;;5006781;28;20384;-77
2024/01/25 09:58:25;;;;;;;44.47;7.80;;;5.70;99.90;;;;;;5002734;28;20073;-75
2024/01/25 10:00:51;;;;;;;41.00;7.70;;;5.70;99.90;;;;;;5004404;28;20084;-75
2024/01/25 10:03:16;;;;;;;48.35;8.15;;;5.80;99.90;;;;;;5003693;28;20073;-75
2024/01/25 10:05:42;;;;;;;42.00;7.57;;;5.80;99.90;;;;;;5010964;28;20487;-76
2024/01/25 10:08:13;;;;;;;38.67;6.63;;;5.80;99.90;;;;;;5007730;28;20447;-75
2024/01/25 10:10:38;;;;;;;39.28;8.02;;;5.90;99.90;;;;;;5007009;28;20057;-76
2024/01/25 10:13:05;;;;;;;36.03;8.07;;;5.90;99.90;;;;;;5006993;28;20419;-78
2024/01/25 10:15:30;;;;;;;46.95;9.82;;;6.00;99.90;;;;;;5007715;28;20491;-76
2024/01/25 10:17:56;;;;;;;38.25;8.30;;;6.00;99.90;;;;;;5005504;28;20064;-75
2024/01/25 10:20:25;;;;;;;45.60;7.85;;;6.00;99.90;;;;;;5007360;28;20062;-76
2024/01/25 10:22:52;;;;;;;37.47;7.90;;;6.10;99.90;;;;;;5008489;28;20045;-76
2024/01/25 10:25:17;;;;;;;43.95;7.75;;;6.10;99.90;;;;;;5001369;28;20046;-75
2024/01/25 10:27:44;;;;;;;43.60;8.20;;;6.10;99.90;;;;;;5002104;28;20064;-76
2024/01/25 10:30:12;;;;;;;34.65;7.78;;;6.20;99.90;;;;;;5004327;28;20380;-75
2024/01/25 10:32:39;;;;;;;53.38;7.78;;;6.20;99.90;;;;;;4997611;28;20062;-75
2024/01/25 10:35:07;;;;;;;44.10;8.68;;;6.20;99.90;;;;;;5001446;28;20495;-76
2024/01/25 10:37:33;;;;;;;42.42;8.18;;;6.30;99.90;;;;;;5003888;28;20057;-75
2024/01/25 10:39:59;;;;;;;42.25;7.20;;;6.30;99.90;;;;;;5001008;28;20037;-75
2024/01/25 10:42:25;;;;;;;49.42;8.20;;;6.30;99.90;;;;;;5005164;28;20041;-78
2024/01/25 10:44:51;;;;;;;49.95;8.50;;;6.30;99.90;;;;;;5002636;28;20042;-75
2024/01/25 10:47:17;;;;;;;44.22;7.88;;;6.30;99.90;;;;;;5008814;28;20101;-75
2024/01/25 10:49:44;;;;;;;40.50;7.53;;;6.30;99.90;;;;;;5008090;28;20485;-76
2024/01/25 10:52:09;;;;;;;38.42;8.10;;;6.30;99.90;;;;;;5004651;28;20038;-77
2024/01/25 10:54:35;;;;;;;40.72;7.97;;;6.30;99.90;;;;;;5011392;28;20577;-75
2024/01/25 10:57:02;;;;;;;44.85;8.50;;;6.40;99.90;;;;;;5003459;28;20722;-75
2024/01/25 10:59:28;;;;;;;51.95;8.77;;;6.40;99.90;;;;;;5005775;28;20411;-76
2024/01/25 11:01:54;;;;;;;40.80;8.63;;;6.50;99.90;;;;;;5002000;28;20487;-78
2024/01/25 11:04:20;;;;;;;45.38;8.63;;;6.60;99.90;;;;;;5004543;28;20432;-79
2024/01/25 11:06:46;;;;;;;40.35;8.02;;;6.60;99.90;;;;;;5004208;28;20073;-82
2024/01/25 11:09:19;;;;;;;38.40;8.77;;;6.60;99.90;;;;;;5003978;28;20141;-76
2024/01/25 11:11:47;;;;;;;42.47;8.35;;;6.60;99.90;;;;;;5010614;28;20034;-76
2024/01/25 11:14:14;;;;;;;41.88;8.48;;;6.70;99.90;;;;;;5008405;28;20042;-76
2024/01/25 11:16:44;;;;;;;44.95;7.93;;;6.70;99.90;;;;;;5001435;28;20042;-77
2024/01/25 11:19:20;;;;;;;43.72;8.77;;;6.70;99.90;;;;;;5006458;28;20442;-75
2024/01/25 11:21:47;;;;;;;41.05;8.35;;;6.80;99.90;;;;;;5009035;28;20061;-75
2024/01/25 11:24:25;;;;;;;46.10;7.72;;;6.80;99.90;;;;;;5003181;28;20448;-75
2024/01/25 11:26:51;;;;;;;50.42;8.95;;;6.80;99.90;;;;;;4996083;28;20042;-75
2024/01/25 11:29:18;;;;;;;41.35;8.35;;;6.90;99.90;;;;;;4998251;28;20415;-77
2024/01/25 11:31:48;;;;;;;43.60;7.45;;;6.90;99.90;;;;;;5003547;28;20061;-78
2024/01/25 11:34:21;;;;;;;48.55;9.10;;;7.00;99.90;;;;;;4999974;28;20261;-75
2024/01/25 11:36:47;;;;;;;44.28;8.15;;;7.00;99.90;;;;;;5006662;28;20054;-76
2024/01/25 11:39:15;;;;;;;44.72;8.10;;;7.10;99.90;;;;;;4998494;28;20038;-75
2024/01/25 11:41:42;;;;;;;45.63;8.63;;;7.10;99.90;;;;;;5011837;28;20037;-75
2024/01/25 11:44:09;;;;;;;49.25;7.80;;;7.20;99.90;;;;;;5009056;28;20045;-75
2024/01/25 11:46:35;;;;;;;41.40;8.38;;;7.30;99.90;;;;;;5009920;28;20068;-77
2024/01/25 11:49:01;;;;;;;48.05;7.78;;;7.30;99.90;;;;;;5005998;28;20038;-75
2024/01/25 11:51:27;;;;;;;38.35;7.78;;;7.40;99.90;;;;;;5006558;28;20043;-75
2024/01/25 11:53:53;;;;;;;45.67;8.15;;;7.40;99.90;;;;;;5012997;28;20362;-75
2024/01/25 11:56:31;;;;;;;42.97;8.60;;;7.50;99.90;;;;;;5008524;28;20078;-75
2024/01/25 11:58:57;;;;;;;39.13;9.13;;;7.50;99.90;;;;;;5001956;28;20049;-74
2024/01/25 12:01:26;;;;;;;39.28;8.25;;;7.50;99.90;;;;;;5007687;28;20034;-75
2024/01/25 12:03:53;;;;;;;36.53;8.20;;;7.60;99.90;;;;;;5005234;28;20042;-76
2024/01/25 12:06:19;;;;;;;41.35;8.38;;;7.70;99.90;;;;;;5006963;28;20058;-75
2024/01/25 12:08:48;;;;;;;37.33;7.22;;;7.80;99.90;;;;;;5007683;28;20049;-75
2024/01/25 12:11:14;;;;;;;37.67;8.00;;;7.80;99.90;;;;;;5005511;28;20047;-79
2024/01/25 12:13:43;;;;;;;41.47;8.23;;;7.90;99.90;;;;;;5007199;28;20123;-75
2024/01/25 12:16:10;;;;;;;37.80;7.78;;;7.90;99.90;;;;;;5007119;28;20054;-77
2024/01/25 12:18:37;;;;;;;41.75;7.00;;;7.90;99.90;;;;;;5006212;28;20521;-75
2024/01/25 12:21:03;;;;;;;43.05;8.30;;;7.80;99.90;;;;;;5003643;28;20034;-75
2024/01/25 12:23:39;;;;;;;42.75;7.07;;;7.80;99.90;;;;;;5006415;28;20033;-75
2024/01/25 12:26:07;;;;;;;44.55;8.15;;;7.80;99.90;;;;;;5008878;28;20066;-76
2024/01/25 12:28:33;;;;;;;38.35;7.28;;;7.80;99.90;;;;;;5009625;28;20038;-76
2024/01/25 12:31:00;;;;;;;43.30;8.15;;;7.80;99.90;;;;;;5006922;28;20038;-76
2024/01/25 12:33:26;;;;;;;34.20;7.47;;;7.80;99.90;;;;;;5004203;28;20034;-77
2024/01/25 12:35:51;;;;;;;37.58;7.15;;;7.90;99.90;;;;;;5011102;28;20091;-76
2024/01/25 12:38:17;;;;;;;41.65;7.07;;;7.90;99.90;;;;;;5011371;28;20053;-79
2024/01/25 12:40:48;;;;;;;41.97;8.52;;;7.90;99.90;;;;;;5011393;28;20040;-80
2024/01/25 12:43:15;;;;;;;42.65;8.32;;;8.00;99.90;;;;;;5001203;28;20189;-78